Flight Track Log - Related Links

Times and Time Zones

All times are in EST time to prevent confusion due to time zone crossing. See the EJA122 flight status page for this flight to view local times or setup timezone preferences in your user account.

Time Position Orientation Groundspeed Altitude Reporting Facility
EST Latitude Longitude Course Direction KTS MPH feet Rate Location/Type
Sun 12:27:56 PM 41.7833 -87.8000 94° East 191 220 2,400  Level Chicago TRACON
Sun 12:28:56 PM 41.8500 -87.7667 20° North 289 333 2,900 619 Climbing Chicago TRACON
Sun 12:30:02 PM 41.8333 -87.6667 103° East 232 267 3,700 952 Climbing Chicago TRACON
Sun 12:31:02 PM 41.8333 -87.5667 90° East 298 343 4,900 678 Climbing Chicago TRACON
Sun 12:31:57 PM 41.8167 -87.4667 103° East 298 343 5,000 348 Climbing Chicago TRACON
Sun 12:33:00 PM 41.1979 -87.4714 94° East  Level Estimated
Sun 12:33:20 PM 41.8061 -87.3242 96° East 299 344 5,700  Level Chicago Center
Sun 12:34:21 PM 41.7911 -87.2136 100° East 300 345 8,700 2,585 Climbing Chicago Center
Sun 12:35:23 PM 41.7686 -87.1056 106° East 302 348 11,000 2,226 Climbing Chicago Center
Sun 12:36:25 PM 41.7633 -86.9822 93° East 338 389 13,300 2,098 Climbing Chicago Center
Sun 12:37:26 PM 41.7675 -86.8525 87° East 352 405 15,300 2,537 Climbing Chicago Center
Sun 12:38:28 PM 41.8158 -86.7008 67° East 369 425 18,500 2,468 Climbing Chicago Center
Sun 12:39:30 PM 41.8100 -86.5794 94° East 341 392 20,400 1,854 Climbing Chicago Center
Sun 12:40:31 PM 41.8028 -86.4528 94° East 342 394 22,300 1,756 Climbing Chicago Center
Sun 12:41:33 PM 41.7961 -86.3233 94° East 346 398 24,000 1,512 Climbing Chicago Center
Sun 12:42:34 PM 41.7881 -86.1892 95° East 358 412 25,400 1,366 Climbing Chicago Center
Sun 12:43:36 PM 41.7797 -86.0483 94° East 374 430 26,800 1,415 Climbing Chicago Center
Sun 12:44:37 PM 41.7706 -85.9025 95° East 386 444 28,300 1,561 Climbing Chicago Center
Sun 12:45:39 PM 41.7161 -85.7636 118° Southeast 358 412 30,000 1,512 Climbing Chicago Center
Sun 12:46:40 PM 41.6503 -85.6828 137° Southeast 330 380 31,400 1,268 Climbing Chicago Center
Sun 12:47:42 PM 41.5842 -85.6022 138° Southeast 326 375 32,600 927 Climbing Chicago Center
Sun 12:48:43 PM 41.5158 -85.5175 137° Southeast 341 392 33,300 689 Climbing Chicago Center
Sun 12:49:44 PM 41.4458 -85.4294 137° Southeast 351 404 34,000 634 Climbing Chicago Center
Sun 12:50:46 PM 41.3706 -85.3378 138° Southeast 364 419 34,600 585 Climbing Chicago Center
Sun 12:51:47 PM 41.2783 -85.2242 137° Southeast 376 433 35,200 585 Climbing Chicago Center
Sun 12:52:49 PM 41.1978 -85.1272 138° Southeast 388 447 35,800 537 Climbing Chicago Center
Sun 12:53:50 PM 41.1169 -85.0289 137° Southeast 393 452 36,300 537 Climbing Chicago Center
Sun 12:54:52 PM 41.0342 -84.9286 138° Southeast 400 460 36,900 537 Climbing Chicago Center
Sun 12:55:53 PM 40.9519 -84.8281 137° Southeast 404 465 37,400 541 Climbing Chicago Center
Sun 12:56:54 PM 40.8692 -84.7297 138° Southeast 402 463 38,000 488 Climbing Chicago Center
Sun 12:57:56 PM 40.7856 -84.6303 138° Southeast 404 465 38,400 488 Climbing Chicago Center
Sun 12:58:57 PM 40.7033 -84.5322 138° Southeast 400 460 39,000 346 Climbing Chicago Center
Sun 12:59:40 PM 40.6283 -84.4456 139° Southeast 401 461 39,000  Level Indianapolis Center
Sun 01:00:42 PM 40.5428 -84.3431 138° Southeast 413 475 39,000  Level Indianapolis Center
Sun 01:01:44 PM 40.4536 -84.2386 138° Southeast 426 490 39,000 146 Level Indianapolis Center
Sun 01:02:45 PM 40.3628 -84.1325 138° Southeast 435 501 39,300 293 Climbing Indianapolis Center
Sun 01:03:47 PM 40.2625 -84.0667 153° Southeast 403 464 39,600 290 Climbing Indianapolis Center
Sun 01:04:49 PM 40.1600 -84.0642 179° South 371 427 39,900 293 Climbing Indianapolis Center
Sun 01:05:50 PM 40.0614 -84.0814 188° South 360 414 40,200 293 Climbing Indianapolis Center
Sun 01:06:52 PM 39.9439 -84.1014 187° South 358 412 40,500 290 Climbing Indianapolis Center
Sun 01:07:54 PM 39.8453 -84.1178 187° South 359 413 40,800 244 Climbing Indianapolis Center
Sun 01:08:55 PM 39.7472 -84.1342 187° South 358 412 41,000 98 Climbing Indianapolis Center
Sun 01:09:57 PM 39.6469 -84.1500 187° South 363 418 41,000  Level Indianapolis Center
Sun 01:10:59 PM 39.5447 -84.1633 186° South 369 425 41,000  Level Indianapolis Center
Sun 01:12:00 PM 39.4372 -84.1472 173° South 390 449 41,000  Level Indianapolis Center
Sun 01:13:02 PM 39.3092 -84.1294 174° South 387 445 41,000  Level Indianapolis Center
Sun 01:14:04 PM 39.2003 -84.1133 173° South 392 451 41,000  Level Indianapolis Center
Sun 01:15:05 PM 39.0925 -84.0983 174° South 392 451 41,000  Level Indianapolis Center
Sun 01:16:07 PM 38.9856 -84.0833 174° South 389 448 41,000  Level Indianapolis Center
Sun 01:17:08 PM 38.8792 -84.0672 173° South 386 444 41,000  Level Indianapolis Center
Sun 01:18:10 PM 38.7714 -84.0514 173° South 389 448 41,000  Level Indianapolis Center
Sun 01:19:12 PM 38.6428 -84.0328 174° South 389 448 41,000  Level Indianapolis Center
Sun 01:20:13 PM 38.5489 -84.0203 174° South 381 438 41,000  Level Indianapolis Center
Sun 01:21:15 PM 38.4269 -84.0003 173° South 379 436 41,000  Level Indianapolis Center
Sun 01:22:17 PM 38.3219 -83.9872 174° South 378 435 41,000  Level Indianapolis Center
Sun 01:23:18 PM 38.2164 -83.9725 174° South 380 437 41,000  Level Indianapolis Center
Sun 01:24:20 PM 38.1133 -83.9578 174° South 376 433 41,000  Level Indianapolis Center
Sun 01:25:21 PM 38.0097 -83.9447 174° South 372 428 41,000  Level Indianapolis Center
Sun 01:26:23 PM 37.9081 -83.9306 174° South 369 425 41,000  Level Indianapolis Center
Sun 01:27:25 PM 37.8072 -83.9156 173° South 364 419 41,000  Level Indianapolis Center
Sun 01:28:26 PM 37.6911 -83.8992 174° South 361 415 41,000  Level Indianapolis Center
Sun 01:29:28 PM 37.5908 -83.8858 174° South 362 417 41,000  Level Indianapolis Center
Sun 01:30:30 PM 37.4925 -83.8717 173° South 358 412 41,000  Level Indianapolis Center
Sun 01:31:31 PM 37.3925 -83.8578 174° South 358 412 41,000  Level Indianapolis Center
Sun 01:32:33 PM 37.2919 -83.8439 174° South 362 417 41,000  Level Indianapolis Center
Sun 01:33:34 PM 37.1919 -83.8303 174° South 361 415 41,000  Level Indianapolis Center
Sun 01:34:36 PM 37.0761 -83.8144 174° South 361 415 41,000  Level Indianapolis Center
Sun 01:35:37 PM 36.9756 -83.8006 174° South 362 417 41,000  Level Indianapolis Center
Sun 01:36:39 PM 36.8747 -83.7864 174° South 363 418 41,000  Level Indianapolis Center
Sun 01:37:40 PM 36.7753 -83.7733 174° South 362 417 41,000  Level Indianapolis Center
Sun 01:38:42 PM 36.6761 -83.7594 174° South 358 412 41,000  Level Indianapolis Center
Sun 01:39:44 PM 36.5778 -83.7461 174° South 356 410 41,000  Level Indianapolis Center
Sun 01:40:45 PM 36.4808 -83.7325 174° South 356 410 41,000  Level Indianapolis Center
Sun 01:41:47 PM 36.3603 -83.7153 173° South 359 413 41,000  Level Indianapolis Center
Sun 01:42:48 PM 36.2608 -83.7028 174° South 359 413 41,000  Level Indianapolis Center
Sun 01:43:50 PM 36.1614 -83.6892 174° South 358 412 41,000  Level Indianapolis Center
Sun 01:44:52 PM 36.0608 -83.6750 174° South 360 414 41,000  Level Indianapolis Center
Sun 01:45:53 PM 35.9636 -83.6636 175° South 362 417 41,000  Level Indianapolis Center
Sun 01:46:55 PM 35.8633 -83.6492 173° South 362 417 41,000  Level Indianapolis Center
Sun 01:47:56 PM 35.7450 -83.6344 174° South 365 420 41,000  Level Indianapolis Center
Sun 01:48:58 PM 35.6436 -83.6203 174° South 366 421 41,000  Level Indianapolis Center
Sun 01:49:59 PM 35.5486 -83.6100 175° South 367 422 41,000  Level Atlanta Center
Sun 01:50:59 PM 35.4461 -83.5953 173° South 367 422 41,000  Level Atlanta Center
Sun 01:51:59 PM 35.3439 -83.5831 174° South 367 422 41,000  Level Atlanta Center
Sun 01:52:59 PM 35.2417 -83.5708 174° South 367 422 41,000  Level Atlanta Center
Sun 01:53:59 PM 35.1372 -83.5561 173° South 372 428 41,000  Level Atlanta Center
Sun 01:54:59 PM 35.0328 -83.5417 174° South 372 428 41,000  Level Atlanta Center
Sun 01:55:59 PM 34.9264 -83.5319 176° South 378 435 41,000  Level Atlanta Center
Sun 01:56:59 PM 34.8178 -83.5150 173° South 390 449 41,000  Level Atlanta Center
Sun 01:57:59 PM 34.7114 -83.5006 174° South 396 456 41,000  Level Atlanta Center
Sun 01:58:59 PM 34.5986 -83.4811 172° South 402 463 41,000  Level Atlanta Center
Sun 01:59:59 PM 34.4881 -83.4667 174° South 408 470 41,000  Level Atlanta Center
Sun 02:00:59 PM 34.3753 -83.4550 175° South 408 470 41,000  Level Atlanta Center
Sun 02:01:59 PM 34.2625 -83.4406 174° South 408 470 41,000  Level Atlanta Center
Sun 02:02:59 PM 34.1392 -83.4239 174° South 402 463 41,000  Level Atlanta Center
Sun 02:03:59 PM 34.0264 -83.4097 174° South 409 471 41,000  Level Atlanta Center
Sun 02:04:59 PM 33.9158 -83.3981 175° South 409 471 41,000  Level Atlanta Center
Sun 02:05:59 PM 33.8028 -83.3814 173° South 409 471 41,000  Level Atlanta Center
Sun 02:06:59 PM 33.6881 -83.3697 175° South 409 471 41,000  Level Atlanta Center
Sun 02:07:59 PM 33.5753 -83.3556 174° South 409 471 41,000  Level Atlanta Center
Sun 02:08:59 PM 33.4625 -83.3442 175° South 404 465 41,000 -250 Level Atlanta Center
Sun 02:09:59 PM 33.3581 -83.3325 175° South 410 472 40,500 -850 Descending Atlanta Center
Sun 02:10:59 PM 33.2389 -83.3161 173° South 421 484 39,300 -1,200 Descending Atlanta Center
Sun 02:11:59 PM 33.1261 -83.3047 175° South 429 494 38,100 -1,300 Descending Atlanta Center
Sun 02:12:59 PM 33.0031 -83.2858 173° South 415 478 36,700 -1,050 Descending Atlanta Center
Sun 02:13:59 PM 32.9006 -83.2744 175° South 410 472 36,000 -350 Descending Atlanta Center
Sun 02:14:59 PM 32.7836 -83.2606 174° South 410 472 36,000  Level Atlanta Center
Sun 02:15:59 PM 32.6644 -83.2419 173° South 415 478 36,000  Level Atlanta Center
Sun 02:16:59 PM 32.5475 -83.2281 174° South 426 490 36,000 -350 Level Atlanta Center
Sun 02:17:59 PM 32.4264 -83.2144 175° South 426 490 35,300 -500 Descending Atlanta Center
Sun 02:18:59 PM 32.3094 -83.1983 173° South 426 490 35,000 -150 Descending Atlanta Center
Sun 02:19:59 PM 32.1883 -83.1847 175° South 426 490 35,000  Level Atlanta Center
Sun 02:20:52 PM 32.0703 -83.1672 173° South 428 493 35,000  Level Jacksonville Center
Sun 02:21:53 PM 31.9511 -83.1522 174° South 428 493 35,000  Level Jacksonville Center
Sun 02:22:52 PM 31.8322 -83.1128 164° South 428 493 35,000  Level Jacksonville Center
Sun 02:23:52 PM 31.7197 -83.0464 153° Southeast 434 499 35,000 -198 Level Jacksonville Center
Sun 02:24:53 PM 31.6069 -82.9781 153° Southeast 450 518 34,600 -496 Descending Jacksonville Center
Sun 02:25:53 PM 31.4881 -82.9072 153° Southeast 462 532 34,000 -300 Descending Jacksonville Center
Sun 02:26:53 PM 31.3711 -82.8367 153° Southeast 468 539 34,000  Level Jacksonville Center
Sun 02:27:53 PM 31.2625 -82.7661 151° Southeast 468 539 34,000  Level Jacksonville Center
Sun 02:28:52 PM 31.1433 -82.7008 155° Southeast 463 533 34,000  Level Jacksonville Center
Sun 02:29:53 PM 31.0389 -82.6406 154° Southeast 463 533 34,000  Level Jacksonville Center
Sun 02:30:53 PM 30.9258 -82.5728 153° Southeast 463 533 34,000  Level Jacksonville Center
Sun 02:31:53 PM 30.8131 -82.5056 153° Southeast 463 533 34,000  Level Jacksonville Center
Sun 02:32:53 PM 30.6978 -82.4358 153° Southeast 463 533 34,000  Level Jacksonville Center
Sun 02:33:53 PM 30.5850 -82.3689 153° Southeast 463 533 34,000  Level Jacksonville Center
Sun 02:34:53 PM 30.4592 -82.2925 152° Southeast 468 539 34,000  Level Jacksonville Center
Sun 02:35:53 PM 30.3503 -82.2258 152° Southeast 448 516 34,000 -500 Level Jacksonville Center
Sun 02:36:53 PM 30.2353 -82.1617 154° Southeast 447 514 33,000 -500 Descending Jacksonville Center
Sun 02:37:53 PM 30.1200 -82.1194 162° South 440 506 33,000  Level Jacksonville Center
Sun 02:38:53 PM 30.0114 -82.1011 172° South 434 499 33,000  Level Jacksonville Center
Sun 02:39:53 PM 29.8944 -82.0756 169° South 434 499 33,000  Level Jacksonville Center
Sun 02:40:53 PM 29.7753 -82.0550 171° South 434 499 33,000  Level Jacksonville Center
Sun 02:41:53 PM 29.6581 -82.0297 169° South 429 494 33,000  Level Jacksonville Center
Sun 02:42:53 PM 29.5389 -82.0069 171° South 429 494 33,000  Level Jacksonville Center
Sun 02:43:53 PM 29.4239 -81.9842 170° South 429 494 33,000  Level Jacksonville Center
Sun 02:44:53 PM 29.3028 -81.9592 170° South 429 494 33,000 -550 Level Jacksonville Center
Sun 02:45:53 PM 29.1836 -81.9317 169° South 429 494 31,900 -1,410 Descending Jacksonville Center
Sun 02:47:39 PM 28.9633 -81.8897 171° South 442 509 29,100 -1,590 Descending Miami Center
Sun 02:48:39 PM 28.8453 -81.8678 171° South 448 516 27,500 -1,050 Descending Miami Center
Sun 02:49:39 PM 28.7272 -81.8458 171° South 442 509 27,000 -250 Descending Miami Center
Sun 02:50:39 PM 28.6092 -81.8217 170° South 437 503 27,000  Level Miami Center
Sun 02:51:39 PM 28.4892 -81.7928 168° South 437 503 27,000 -50 Level Miami Center
Sun 02:52:39 PM 28.3672 -81.7567 165° South 442 509 26,900 -650 Descending Miami Center
Sun 02:53:39 PM 28.2475 -81.7231 166° South 449 517 25,700 -1,350 Descending Miami Center
Sun 02:54:39 PM 28.1317 -81.6900 166° South 443 510 24,200 -850 Descending Miami Center
Sun 02:55:39 PM 28.0194 -81.6781 175° South 425 489 24,000 -550 Descending Miami Center
Sun 02:56:39 PM 27.9131 -81.6783 180° South 398 458 23,100 -500 Descending Miami Center
Sun 02:57:39 PM 27.7908 -81.6494 168° South 404 465 23,000 -50 Descending Miami Center
Sun 02:58:39 PM 27.6853 -81.6286 170° South 404 465 23,000 -200 Level Miami Center
Sun 02:59:39 PM 27.5858 -81.6058 169° South 409 471 22,600 -1,100 Descending Miami Center
Sun 03:00:39 PM 27.4697 -81.5822 170° South 399 459 20,800 -2,100 Descending Miami Center
Sun 03:01:39 PM 27.3661 -81.5569 168° South 388 447 18,400 -2,300 Descending Miami Center
Sun 03:02:39 PM 27.2686 -81.5392 171° South 376 433 16,200 -2,200 Descending Miami Center
Sun 03:03:39 PM 27.1753 -81.5214 170° South 366 421 14,000 -2,100 Descending Miami Center
Sun 03:04:39 PM 27.0881 -81.5014 168° South 339 390 12,000 -1,900 Descending Miami Center
Sun 03:05:39 PM 27.0158 -81.4822 167° South 317 365 10,200 -1,000 Descending Miami Center
Sun 03:06:39 PM 26.9314 -81.4417 157° South 296 341 10,000 -550 Descending Miami Center
Sun 03:07:39 PM 26.8594 -81.4086 158° South 289 333 9,100 -1,050 Descending Miami Center
Sun 03:08:39 PM 26.7864 -81.4033 176° South 283 326 7,900 -1,500 Descending Miami Center
Sun 03:09:39 PM 26.7367 -81.4619 226° Southwest 252 290 6,100 -2,000 Descending Miami Center
Sun 03:10:39 PM 26.6889 -81.5228 229° Southwest 257 296 3,900 -1,550 Descending Miami Center
Sun 03:11:39 PM 26.6514 -81.5817 235° Southwest 250 288 3,000 -800 Descending Miami Center
Sun 03:12:39 PM 26.6139 -81.6383 233° Southwest 231 266 2,300 -700 Descending Miami Center
Sun 03:14:00 PM 26.5333 -81.7500 318° Northwest  Level FlightAware Approximate
Sun 03:21:00 PM 26.5362 -81.7552 318° Northwest  Level Estimated
Sun 03:22:00 PM 26.5333 -81.7500 318° Northwest  Level FlightAware Approximate
Sun 03:23:00 PM 26.5362 -81.7552 318° Northwest  Level Estimated
Sun 03:24:00 PM 26.5333 -81.7500 318° Northwest  Level FlightAware Approximate

Login

Don't have an account? Register now (free) for customized features, flight alerts, and more!